createdAt,value
2022-11-20T00:01:11.728Z,51.58
2022-11-20T00:03:39.666Z,53.03
2022-11-20T00:06:09.614Z,50.42
2022-11-20T00:08:39.380Z,43.38
2022-11-20T00:11:12.807Z,47.60
2022-11-20T00:13:43.529Z,47.95
2022-11-20T00:16:13.710Z,53.47
2022-11-20T00:18:43.268Z,56.70
2022-11-20T00:21:16.731Z,50.73
2022-11-20T00:23:47.008Z,51.05
2022-11-20T00:26:16.667Z,49.05
2022-11-20T00:28:45.569Z,52.58
2022-11-20T00:31:16.269Z,52.78
2022-11-20T00:33:45.389Z,48.67
2022-11-20T00:36:15.264Z,49.78
2022-11-20T00:38:43.499Z,48.78
2022-11-20T00:41:14.520Z,51.92
2022-11-20T00:43:42.681Z,55.33
2022-11-20T00:46:12.266Z,49.72
2022-11-20T00:48:40.180Z,52.03
2022-11-20T00:51:08.461Z,45.40
2022-11-20T00:53:36.720Z,49.88
2022-11-20T00:56:07.225Z,49.95
2022-11-20T00:58:38.283Z,52.47
2022-11-20T01:01:08.046Z,56.45
2022-11-20T01:03:37.003Z,54.63
2022-11-20T01:06:06.123Z,49.38
2022-11-20T01:08:35.546Z,57.08
2022-11-20T01:11:05.295Z,54.92
2022-11-20T01:13:39.405Z,57.90
2022-11-20T01:16:10.585Z,56.30
2022-11-20T01:18:39.629Z,51.75
2022-11-20T01:21:09.793Z,57.92
2022-11-20T01:23:39.947Z,53.13
2022-11-20T01:26:10.180Z,55.30
2022-11-20T01:28:38.496Z,55.28
2022-11-20T01:31:15.292Z,62.75
2022-11-20T01:33:44.062Z,57.72
2022-11-20T01:36:13.172Z,52.90
2022-11-20T01:38:41.239Z,60.88
2022-11-20T01:41:10.161Z,59.10
2022-11-20T01:43:37.246Z,58.72
2022-11-20T01:46:17.993Z,56.92
2022-11-20T01:48:52.784Z,59.55
2022-11-20T01:51:27.657Z,53.03
2022-11-20T01:53:58.133Z,56.33
2022-11-20T01:56:27.798Z,53.80
2022-11-20T01:59:00.198Z,51.47
2022-11-20T02:01:30.058Z,56.90
2022-11-20T02:03:58.702Z,62.33
2022-11-20T02:06:30.111Z,56.65
2022-11-20T02:08:58.169Z,53.75
2022-11-20T02:11:26.282Z,60.10
2022-11-20T02:13:55.330Z,56.85
2022-11-20T02:16:26.252Z,59.45
2022-11-20T02:18:57.465Z,57.13
2022-11-20T02:21:38.173Z,56.90
2022-11-20T02:24:13.596Z,54.55
2022-11-20T02:26:48.395Z,56.00
2022-11-20T02:29:19.438Z,52.13
2022-11-20T02:31:47.837Z,54.65
2022-11-20T02:34:15.741Z,58.35
2022-11-20T02:36:45.103Z,56.60
2022-11-20T02:39:17.932Z,55.70
2022-11-20T02:41:46.531Z,62.30
2022-11-20T02:44:14.597Z,58.35
2022-11-20T02:46:42.544Z,59.40
2022-11-20T02:49:10.448Z,55.10
2022-11-20T02:51:38.484Z,61.45
2022-11-20T02:54:06.823Z,60.92
2022-11-20T02:56:36.083Z,67.40
2022-11-20T02:59:03.956Z,63.47
2022-11-20T03:01:31.865Z,58.63
2022-11-20T03:03:59.789Z,54.78
2022-11-20T03:06:27.714Z,57.30
2022-11-20T03:08:55.743Z,63.65
2022-11-20T03:11:23.584Z,61.20
2022-11-20T03:13:52.796Z,60.67
2022-11-20T03:16:22.898Z,63.38
2022-11-20T03:18:51.457Z,67.80
2022-11-20T03:21:19.510Z,64.35
2022-11-20T03:23:47.508Z,65.78
2022-11-20T03:26:18.241Z,57.47
2022-11-20T03:28:49.886Z,63.10
2022-11-20T03:31:21.282Z,61.25
2022-11-20T03:33:49.584Z,60.22
2022-11-20T03:36:19.427Z,60.58
2022-11-20T03:38:48.164Z,62.17
2022-11-20T03:41:18.195Z,62.20
2022-11-20T03:43:49.606Z,67.00
2022-11-20T03:46:18.887Z,63.83
2022-11-20T03:48:51.298Z,59.80
2022-11-20T03:51:21.533Z,57.92
2022-11-20T03:53:50.133Z,56.67
2022-11-20T03:56:19.764Z,60.45
2022-11-20T03:58:47.903Z,62.75
2022-11-20T04:01:18.908Z,61.28
2022-11-20T04:03:48.462Z,62.08
2022-11-20T04:06:18.760Z,62.40
2022-11-20T04:08:52.364Z,62.30
2022-11-20T04:11:23.201Z,57.90
2022-11-20T04:13:52.541Z,59.47
2022-11-20T04:16:21.289Z,62.72
2022-11-20T04:18:54.045Z,65.70
2022-11-20T04:21:22.322Z,61.08
2022-11-20T04:23:50.267Z,61.05
2022-11-20T04:26:18.506Z,67.03
2022-11-20T04:28:46.391Z,68.13
2022-11-20T04:31:16.161Z,59.92
2022-11-20T04:33:44.578Z,58.08
2022-11-20T04:36:15.588Z,68.18
2022-11-20T04:38:43.509Z,69.20
2022-11-20T04:41:17.194Z,62.42
2022-11-20T04:43:48.693Z,67.63
2022-11-20T04:46:17.645Z,59.03
2022-11-20T04:48:45.708Z,60.83
2022-11-20T04:51:15.298Z,67.97
2022-11-20T04:53:43.696Z,63.88
2022-11-20T04:56:13.719Z,63.17
2022-11-20T04:58:41.858Z,64.30
2022-11-20T05:01:12.778Z,72.57
2022-11-20T05:03:42.480Z,59.67
2022-11-20T05:06:12.005Z,68.57
2022-11-20T05:08:41.688Z,70.30
2022-11-20T05:11:11.914Z,61.88
2022-11-20T05:13:40.806Z,61.88
2022-11-20T05:16:10.903Z,62.22
2022-11-20T05:18:40.331Z,66.72
2022-11-20T05:21:09.159Z,69.35
2022-11-20T05:23:37.143Z,66.55
2022-11-20T05:26:07.461Z,60.20
2022-11-20T05:28:35.646Z,67.72
2022-11-20T05:31:08.338Z,63.95
2022-11-20T05:33:36.560Z,73.43
2022-11-20T05:36:04.916Z,65.80
2022-11-20T05:38:32.818Z,71.38
2022-11-20T05:41:07.487Z,65.05
2022-11-20T05:43:36.127Z,68.60
2022-11-20T05:46:04.688Z,65.40
2022-11-20T05:48:33.017Z,70.13
2022-11-20T05:51:02.067Z,65.00
2022-11-20T05:53:30.375Z,66.72
2022-11-20T05:55:59.502Z,64.72
2022-11-20T05:58:29.104Z,66.30
2022-11-20T06:00:57.290Z,63.28
2022-11-20T06:03:25.247Z,60.03
2022-11-20T06:05:53.187Z,62.53
2022-11-20T06:08:21.099Z,62.53
2022-11-20T06:10:48.960Z,56.40
2022-11-20T06:13:16.796Z,65.57
2022-11-20T06:15:50.734Z,70.18
2022-11-20T06:18:18.893Z,66.53
2022-11-20T06:20:47.294Z,65.05
2022-11-20T06:23:15.478Z,62.28
2022-11-20T06:25:44.580Z,73.70
2022-11-20T06:28:12.454Z,63.10
2022-11-20T06:30:48.131Z,72.65
2022-11-20T06:33:16.122Z,63.50
2022-11-20T06:35:44.037Z,72.07
2022-11-20T06:38:11.987Z,74.75
2022-11-20T06:40:42.663Z,68.18
2022-11-20T06:43:11.512Z,63.67
2022-11-20T06:45:39.470Z,67.68
2022-11-20T06:48:08.999Z,69.65
2022-11-20T06:50:37.046Z,68.03
2022-11-20T06:53:06.227Z,69.85
2022-11-20T06:55:34.377Z,67.78
2022-11-20T06:58:02.285Z,64.85
2022-11-20T07:00:30.401Z,67.93
2022-11-20T07:02:58.406Z,77.25
2022-11-20T07:05:27.685Z,72.22
2022-11-20T07:38:42.121Z,77.93
2022-11-20T07:41:09.970Z,73.30
2022-11-20T07:43:41.231Z,52.08
2022-11-20T08:05:22.093Z,58.50
2022-11-20T08:07:50.148Z,62.88
2022-11-20T08:10:18.579Z,65.95
2022-11-20T08:13:05.421Z,63.22
2022-11-20T08:15:33.940Z,56.35
2022-11-20T08:18:29.496Z,64.93
2022-11-20T08:20:52.951Z,60.25
2022-11-20T08:23:20.879Z,66.90
2022-11-20T08:25:52.005Z,63.38
2022-11-20T08:28:22.313Z,60.72
2022-11-20T08:30:51.396Z,68.40
2022-11-20T08:33:20.065Z,65.80
2022-11-20T08:35:47.971Z,59.05
2022-11-20T08:38:17.221Z,64.88
2022-11-20T08:41:06.284Z,63.25
2022-11-20T08:43:34.675Z,66.55
2022-11-20T08:46:02.502Z,63.55
2022-11-20T08:48:30.413Z,67.47
2022-11-20T08:51:00.542Z,63.53
2022-11-20T08:53:29.867Z,60.22
2022-11-20T08:55:59.035Z,68.93
2022-11-20T08:58:27.415Z,68.90
2022-11-20T09:00:55.323Z,57.13
2022-11-20T09:03:24.858Z,67.80
2022-11-20T09:05:59.448Z,62.35
2022-11-20T09:08:27.477Z,61.08
2022-11-20T09:10:58.646Z,60.97
2022-11-20T09:13:27.518Z,63.03
2022-11-20T09:15:57.222Z,65.18
2022-11-20T09:18:26.058Z,71.07
2022-11-20T09:20:54.637Z,66.85
2022-11-20T09:23:22.575Z,67.72
2022-11-20T09:25:50.496Z,57.85
2022-11-20T09:28:19.765Z,61.42
2022-11-20T09:30:47.577Z,67.38
2022-11-20T09:33:15.515Z,60.83
2022-11-20T09:35:44.544Z,62.58
2022-11-20T09:38:12.934Z,69.30
2022-11-20T09:40:45.984Z,70.25
2022-11-20T09:43:21.926Z,64.60
2022-11-20T09:46:09.160Z,61.72
2022-11-20T09:48:59.720Z,66.47
2022-11-20T09:51:40.042Z,65.70
2022-11-20T09:54:18.342Z,69.18
2022-11-20T09:56:48.950Z,54.60
2022-11-20T09:59:31.709Z,56.17
2022-11-20T10:02:01.939Z,58.70
2022-11-20T10:04:38.191Z,48.92
2022-11-20T10:07:31.968Z,55.80
2022-11-20T10:10:01.408Z,59.42
2022-11-20T10:12:42.641Z,60.28
2022-11-20T10:15:27.309Z,54.67
2022-11-20T10:18:16.718Z,56.15
2022-11-20T10:20:50.946Z,52.28
2022-11-20T10:23:34.826Z,54.67
2022-11-20T10:26:04.948Z,45.55
2022-11-20T10:28:54.043Z,46.03
2022-11-20T10:31:33.276Z,49.58
2022-11-20T10:34:12.484Z,46.78
2022-11-20T10:36:45.688Z,44.85
2022-11-20T10:39:22.177Z,42.88
2022-11-20T10:41:54.370Z,32.75
2022-11-20T10:44:38.058Z,33.17
2022-11-20T10:47:14.391Z,36.63
2022-11-20T10:49:45.201Z,33.20
2022-11-20T10:52:22.500Z,35.75
2022-11-20T10:54:58.629Z,37.72
2022-11-20T10:57:50.221Z,32.58
2022-11-20T11:00:20.100Z,37.90
2022-11-20T11:02:51.669Z,33.33
2022-11-20T11:05:27.484Z,42.28
2022-11-20T11:07:57.595Z,30.95
2022-11-20T11:10:31.118Z,36.28
2022-11-20T11:12:58.976Z,30.52
2022-11-20T11:15:29.257Z,25.08
2022-11-20T11:17:59.235Z,21.55
2022-11-20T11:20:28.312Z,20.45
2022-11-20T11:22:58.324Z,23.75
2022-11-20T11:25:30.279Z,29.52
2022-11-20T11:28:01.062Z,28.90
2022-11-20T11:30:31.278Z,26.17
2022-11-20T11:33:08.468Z,28.33
2022-11-20T11:35:41.647Z,26.65
2022-11-20T11:38:16.801Z,25.13
2022-11-20T11:40:45.760Z,22.15
2022-11-20T11:43:39.934Z,24.90
2022-11-20T11:46:26.302Z,25.75
2022-11-20T11:49:00.315Z,26.38
2022-11-20T11:51:38.585Z,23.35
2022-11-20T11:54:18.576Z,19.50
2022-11-20T11:56:47.962Z,23.33
2022-11-20T11:59:25.118Z,20.77
2022-11-20T12:01:59.208Z,20.95
2022-11-20T12:04:44.127Z,23.05
2022-11-20T12:07:45.111Z,21.20
2022-11-20T12:10:08.156Z,22.67
2022-11-20T12:12:41.084Z,25.02
2022-11-20T12:15:13.115Z,23.20
2022-11-20T12:17:41.290Z,21.25
2022-11-20T12:20:16.102Z,23.77
2022-11-20T12:22:53.876Z,25.40
2022-11-20T12:25:24.961Z,21.52
2022-11-20T12:28:16.481Z,20.38
2022-11-20T12:30:59.765Z,22.95
2022-11-20T12:33:48.021Z,27.92
2022-11-20T12:36:29.948Z,21.92
2022-11-20T12:39:19.449Z,21.20
2022-11-20T12:42:49.810Z,22.38
2022-11-20T12:45:30.509Z,21.17
2022-11-20T12:48:15.215Z,18.00
2022-11-20T12:51:14.049Z,24.58
2022-11-20T12:53:52.606Z,19.90
2022-11-20T12:56:32.226Z,21.45
2022-11-20T12:59:12.110Z,18.50
2022-11-20T13:01:50.624Z,20.52
2022-11-20T13:04:36.213Z,21.55
2022-11-20T13:07:05.915Z,17.98
2022-11-20T13:09:38.824Z,20.70
2022-11-20T13:12:13.118Z,21.38
2022-11-20T13:14:47.693Z,18.88
2022-11-20T13:17:22.767Z,17.45
2022-11-20T13:19:54.306Z,18.95
2022-11-20T13:22:27.674Z,20.15
2022-11-20T13:24:57.597Z,20.38
2022-11-20T13:27:26.316Z,22.00
2022-11-20T13:30:16.474Z,19.00
2022-11-20T13:32:51.293Z,20.45
2022-11-20T13:35:31.817Z,16.35
2022-11-20T13:38:08.707Z,18.85
2022-11-20T13:40:40.157Z,20.50
2022-11-20T13:43:21.674Z,20.77
2022-11-20T13:46:00.914Z,21.25
2022-11-20T13:48:33.640Z,22.60
2022-11-20T13:51:11.063Z,15.68
2022-11-20T13:54:07.777Z,18.55
2022-11-20T13:56:50.494Z,17.80
2022-11-20T13:59:33.501Z,15.13
2022-11-20T14:02:02.795Z,15.68
2022-11-20T14:04:35.550Z,16.77
2022-11-20T14:07:03.827Z,18.30
2022-11-20T14:09:33.859Z,18.70
2022-11-20T14:12:04.915Z,14.93
2022-11-20T14:14:35.022Z,15.90
2022-11-20T14:17:09.633Z,15.88
2022-11-20T14:19:39.447Z,17.15
2022-11-20T14:22:13.150Z,16.17
2022-11-20T14:24:40.941Z,17.65
2022-11-20T14:27:16.509Z,16.27
2022-11-20T14:29:46.687Z,16.17
2022-11-20T14:32:18.519Z,15.57
2022-11-20T14:34:49.689Z,16.10
2022-11-20T14:37:22.713Z,15.82
2022-11-20T14:39:53.925Z,16.60
2022-11-20T14:42:24.785Z,15.50
2022-11-20T14:44:54.699Z,16.05
2022-11-20T14:47:25.722Z,17.20
2022-11-20T14:49:55.752Z,17.52
2022-11-20T14:52:25.683Z,20.77
2022-11-20T14:54:55.635Z,16.77
2022-11-20T14:57:27.644Z,17.90
2022-11-20T15:00:09.009Z,16.08
2022-11-20T15:02:42.329Z,17.35
2022-11-20T15:05:11.055Z,16.80
2022-11-20T15:07:41.197Z,18.13
2022-11-20T15:10:12.318Z,20.30
2022-11-20T15:12:48.840Z,17.27
2022-11-20T15:15:21.313Z,16.95
2022-11-20T15:17:49.347Z,16.90
2022-11-20T15:20:19.382Z,18.33
2022-11-20T15:22:47.369Z,18.85
2022-11-20T15:25:17.404Z,18.13
2022-11-20T15:27:48.598Z,22.38
2022-11-20T15:30:19.051Z,18.38
2022-11-20T15:32:48.106Z,23.85
2022-11-20T15:35:17.372Z,17.70
2022-11-20T15:37:45.391Z,25.30
2022-11-20T15:40:13.958Z,22.17
2022-11-20T15:43:02.583Z,23.45
2022-11-20T15:45:35.633Z,22.92
2022-11-20T15:48:03.832Z,23.48
2022-11-20T15:50:38.254Z,21.77
2022-11-20T15:53:06.454Z,22.20
2022-11-20T15:55:34.604Z,26.40
2022-11-20T15:58:02.575Z,27.10
2022-11-20T16:00:31.943Z,25.17
2022-11-20T16:02:59.853Z,24.25
2022-11-20T16:05:30.812Z,28.58
2022-11-20T16:07:59.001Z,25.20
2022-11-20T16:10:26.917Z,25.83
2022-11-20T16:13:20.457Z,23.33
2022-11-20T16:15:54.849Z,24.05
2022-11-20T16:18:23.640Z,29.17
2022-11-20T16:20:56.602Z,28.67
2022-11-20T16:23:24.854Z,32.15
2022-11-20T16:25:53.160Z,31.75
2022-11-20T16:28:21.265Z,29.92
2022-11-20T16:30:50.567Z,29.77
2022-11-20T16:33:19.510Z,26.65
2022-11-20T16:35:47.364Z,29.65
2022-11-20T16:38:15.298Z,27.13
2022-11-20T16:40:43.159Z,27.55
2022-11-20T16:43:12.725Z,31.75
2022-11-20T16:45:43.316Z,28.65
2022-11-20T16:48:17.893Z,25.25
2022-11-20T16:50:51.205Z,32.63
2022-11-20T16:53:19.847Z,31.08
2022-11-20T16:55:48.248Z,34.20
2022-11-20T16:58:16.488Z,31.40
2022-11-20T17:00:51.143Z,36.40
2022-11-20T17:03:21.238Z,42.38
2022-11-20T17:05:49.124Z,36.42
2022-11-20T17:08:19.162Z,38.53
2022-11-20T17:10:47.022Z,36.20
2022-11-20T17:13:14.910Z,31.50
2022-11-20T17:15:42.855Z,41.47
2022-11-20T17:18:10.696Z,35.83
2022-11-20T17:20:39.868Z,37.78
2022-11-20T17:23:08.158Z,40.15
2022-11-20T17:25:36.376Z,37.20
2022-11-20T17:28:04.261Z,42.30
2022-11-20T17:30:32.171Z,38.42
2022-11-20T17:33:00.043Z,38.40
2022-11-20T17:35:27.903Z,46.58
2022-11-20T17:37:57.594Z,34.40
2022-11-20T17:40:27.642Z,39.03
2022-11-20T17:42:56.143Z,40.20
2022-11-20T17:45:24.159Z,33.88
2022-11-20T17:47:52.218Z,41.47
2022-11-20T17:50:20.103Z,41.45
2022-11-20T17:52:48.155Z,38.22
2022-11-20T17:55:17.480Z,38.13
2022-11-20T17:57:53.788Z,33.13
2022-11-20T18:00:22.347Z,37.15
2022-11-20T18:02:50.750Z,34.88
2022-11-20T18:05:18.836Z,36.92
2022-11-20T18:07:46.835Z,28.95
2022-11-20T18:10:14.758Z,34.85
2022-11-20T18:12:46.215Z,37.45
2022-11-20T18:15:14.181Z,33.60
2022-11-20T18:17:42.457Z,35.20
2022-11-20T18:20:28.577Z,34.92
2022-11-20T18:22:58.596Z,36.75
2022-11-20T18:25:26.528Z,35.75
2022-11-20T18:27:56.661Z,35.20
2022-11-20T18:30:24.668Z,33.08
2022-11-20T18:32:52.543Z,33.40
2022-11-20T18:35:20.364Z,33.95
2022-11-20T18:37:48.554Z,41.88
2022-11-20T18:40:16.606Z,40.38
2022-11-20T18:43:01.727Z,42.78
2022-11-20T18:45:31.004Z,39.90
2022-11-20T18:47:58.830Z,34.83
2022-11-20T18:50:27.089Z,34.15
2022-11-20T18:52:55.081Z,27.98
2022-11-20T18:55:25.170Z,35.92
2022-11-20T18:57:54.032Z,31.38
2022-11-20T19:00:22.279Z,34.20
2022-11-20T19:02:54.565Z,32.03
2022-11-20T19:05:22.632Z,29.30
2022-11-20T19:07:50.504Z,26.20
2022-11-20T19:10:20.454Z,23.67
2022-11-20T19:12:48.715Z,19.63
2022-11-20T19:15:16.633Z,19.98
2022-11-20T19:17:44.638Z,25.67
2022-11-20T19:20:14.150Z,27.67
2022-11-20T19:22:42.044Z,27.38
2022-11-20T19:25:10.601Z,30.60
2022-11-20T19:27:38.460Z,26.83
2022-11-20T19:30:07.648Z,25.85
2022-11-20T19:32:35.781Z,21.27
2022-11-20T19:35:04.012Z,20.92
2022-11-20T19:37:35.676Z,20.33
2022-11-20T19:40:04.893Z,19.02
2022-11-20T19:42:33.337Z,18.88
2022-11-20T19:45:01.406Z,14.38
2022-11-20T19:47:52.747Z,13.98
2022-11-20T19:50:17.341Z,15.43
2022-11-20T19:52:46.594Z,10.38
2022-11-20T19:55:14.481Z,6.05
2022-11-20T19:57:42.432Z,8.30
2022-11-20T20:00:12.409Z,8.15
2022-11-20T20:02:40.356Z,6.10
2022-11-20T20:05:08.970Z,10.27
2022-11-20T20:07:36.943Z,9.63
2022-11-20T20:10:07.319Z,9.50
2022-11-20T20:12:35.155Z,10.60
2022-11-20T20:15:03.026Z,12.32
2022-11-20T20:17:31.169Z,4.10
2022-11-20T20:19:58.993Z,9.63
2022-11-20T20:22:27.108Z,5.88
2022-11-20T20:24:54.955Z,5.40
2022-11-20T20:27:24.188Z,3.90
2022-11-20T20:29:52.086Z,8.60
2022-11-20T20:32:20.024Z,6.40
2022-11-20T20:34:47.856Z,4.25
2022-11-20T20:37:15.741Z,5.15
2022-11-20T20:39:44.098Z,7.82
2022-11-20T20:42:11.929Z,3.72
2022-11-20T20:44:58.856Z,4.53
2022-11-20T20:47:31.233Z,6.05
2022-11-20T20:49:59.157Z,3.72
2022-11-20T20:52:27.993Z,4.35
2022-11-20T20:54:55.884Z,4.90
2022-11-20T20:57:24.970Z,4.63
2022-11-20T20:59:54.313Z,3.90
2022-11-20T21:02:22.643Z,4.18
2022-11-20T21:04:50.977Z,4.25
2022-11-20T21:07:20.125Z,4.45
2022-11-20T21:09:48.051Z,5.82
2022-11-20T21:12:16.034Z,3.92
2022-11-20T21:14:44.056Z,3.60
2022-11-20T21:17:15.468Z,5.03
2022-11-20T21:19:43.585Z,4.57
2022-11-20T21:22:10.546Z,2.78
2022-11-20T21:24:38.500Z,3.20
2022-11-20T21:27:08.085Z,3.08
2022-11-20T21:29:35.920Z,2.50
2022-11-20T21:32:03.800Z,3.45
2022-11-20T21:34:33.032Z,3.63
2022-11-20T21:37:00.907Z,2.92
2022-11-20T21:39:30.390Z,2.67
2022-11-20T21:41:58.340Z,3.45
2022-11-20T21:44:33.353Z,3.42
2022-11-20T21:47:01.369Z,4.65
2022-11-20T21:49:29.288Z,3.47
2022-11-20T21:51:58.501Z,6.28
2022-11-20T21:54:26.649Z,3.13
2022-11-20T21:56:54.731Z,2.78
2022-11-20T21:59:22.903Z,4.90
2022-11-20T22:01:51.054Z,2.53
2022-11-20T22:04:18.959Z,3.25
2022-11-20T22:06:46.909Z,3.13
2022-11-20T22:09:16.714Z,3.80
2022-11-20T22:11:44.622Z,2.78
2022-11-20T22:14:20.811Z,3.17
2022-11-20T22:16:50.329Z,5.40
2022-11-20T22:19:19.173Z,3.38
2022-11-20T22:21:47.815Z,5.75
2022-11-20T22:24:18.673Z,4.53
2022-11-20T22:26:46.993Z,5.10
2022-11-20T22:29:16.521Z,3.72
2022-11-20T22:31:44.776Z,5.30
2022-11-20T22:34:14.146Z,3.75
2022-11-20T22:36:42.359Z,3.90
2022-11-20T22:39:10.779Z,4.72
2022-11-20T22:41:40.167Z,4.63
2022-11-20T22:44:09.419Z,4.63
2022-11-20T22:46:38.291Z,10.15
2022-11-20T22:49:08.623Z,2.40
2022-11-20T22:51:39.014Z,5.43
2022-11-20T22:54:07.362Z,3.22
2022-11-20T22:56:35.413Z,2.92
2022-11-20T22:59:05.297Z,3.20
2022-11-20T23:01:34.738Z,4.63
2022-11-20T23:04:04.222Z,3.92
2022-11-20T23:06:34.232Z,10.20
2022-11-20T23:09:02.421Z,8.30
2022-11-20T23:11:32.163Z,4.82
2022-11-20T23:14:01.481Z,3.47
2022-11-20T23:16:32.107Z,4.28
2022-11-20T23:19:02.241Z,3.47
2022-11-20T23:21:30.229Z,8.38
2022-11-20T23:23:59.625Z,4.05
2022-11-20T23:26:29.672Z,2.47
2022-11-20T23:28:59.006Z,3.05
2022-11-20T23:31:28.599Z,6.07
2022-11-20T23:33:58.410Z,4.22
2022-11-20T23:36:26.493Z,4.85
2022-11-20T23:38:54.452Z,5.10
2022-11-20T23:41:22.365Z,3.25
2022-11-20T23:43:50.470Z,5.68
2022-11-20T23:46:18.324Z,3.30
2022-11-20T23:48:46.554Z,7.88
2022-11-20T23:51:15.904Z,7.35
2022-11-20T23:53:44.085Z,4.68
2022-11-20T23:56:14.352Z,5.85
2022-11-20T23:58:42.948Z,3.95
